Time;durP1;ratioP1;P1;durP2;ratioP2;P2;SDS_P1;SDS_P2;PMS_P1;PMS_P2;Temp;Humidity;BMP_temperature;BMP_pressure;BME280_temperature;BME280_humidity;BME280_pressure;Samples;Min_cycle;Max_cycle;Signal;HPM_P1;HPM_P2
2023/05/03 00:00:07;;;;;;;3.10;1.90;;;;;;;-145.18;100.00;46822.53;4941571;29;20034;-67
2023/05/03 00:02:34;;;;;;;2.87;1.70;;;;;;;-145.18;100.00;46810.81;4942453;29;20040;-67
2023/05/03 00:04:59;;;;;;;5.37;1.80;;;;;;;-145.18;100.00;46801.03;4950820;29;20379;-67
2023/05/03 00:07:25;;;;;;;7.33;2.20;;;;;;;-145.18;100.00;46801.03;4951331;28;20380;-67
2023/05/03 00:09:50;;;;;;;5.17;1.60;;;;;;;-145.18;100.00;46765.88;4951239;29;20579;-68
2023/05/03 00:12:16;;;;;;;4.53;1.90;;;;;;;-145.18;100.00;46758.06;4951218;28;20035;-67
2023/05/03 00:14:41;;;;;;;2.53;1.70;;;;;;;-145.18;100.00;46773.69;4951253;28;20122;-67
2023/05/03 00:17:07;;;;;;;3.57;2.30;;;;;;;-145.18;100.00;46754.16;4951029;28;20039;-67
2023/05/03 00:19:32;;;;;;;6.97;2.20;;;;;;;-145.18;100.00;46736.56;4951651;28;20114;-67
2023/05/03 00:21:58;;;;;;;4.17;2.00;;;;;;;-145.18;100.00;46717.03;4951123;28;20139;-67
2023/05/03 00:24:24;;;;;;;6.03;1.90;;;;;;;-145.18;100.00;46705.31;4951326;28;20031;-67
2023/05/03 00:26:49;;;;;;;3.70;2.00;;;;;;;-145.18;100.00;46689.69;4950960;28;20043;-68
2023/05/03 00:29:15;;;;;;;5.03;2.07;;;;;;;-145.18;100.00;46689.69;4951502;28;20027;-67
2023/05/03 00:31:43;;;;;;;6.33;2.03;;;;;;;-145.18;100.00;46683.84;4950982;28;20581;-67
2023/05/03 00:34:08;;;;;;;6.63;3.23;;;;;;;-145.18;100.00;46677.97;4949329;29;20069;-67
2023/05/03 00:36:34;;;;;;;4.73;1.97;;;;;;;-145.18;100.00;46656.50;4950789;28;20690;-67
2023/05/03 00:38:59;;;;;;;5.33;2.20;;;;;;;-145.18;100.00;46676.03;4950836;28;20031;-68
2023/05/03 00:41:25;;;;;;;6.80;2.23;;;;;;;-145.18;100.00;46683.84;4951290;28;20540;-67
2023/05/03 00:43:51;;;;;;;6.00;2.10;;;;;;;-145.18;100.00;46674.06;4951225;28;20192;-68
2023/05/03 00:46:16;;;;;;;5.13;2.33;;;;;;;-145.18;100.00;46677.97;4950346;29;20376;-67
2023/05/03 00:48:42;;;;;;;5.40;2.17;;;;;;;-145.18;100.00;46652.59;4950557;28;20400;-67
2023/05/03 00:51:11;;;;;;;4.30;2.20;;;;;;;-145.18;100.00;46666.25;4951339;28;20023;-67
2023/05/03 00:53:37;;;;;;;6.13;2.20;;;;;;;-145.18;100.00;46654.53;4950764;28;20308;-67
2023/05/03 00:56:04;;;;;;;5.67;2.50;;;;;;;-145.18;100.00;46648.69;4950494;28;20300;-67
2023/05/03 00:58:32;;;;;;;5.93;2.87;;;;;;;-145.18;100.00;46648.69;4949171;29;20070;-67
2023/05/03 01:00:57;;;;;;;4.03;1.97;;;;;;;-145.18;100.00;46636.94;4950742;28;20278;-67
2023/05/03 01:03:23;;;;;;;6.20;2.30;;;;;;;-145.18;100.00;46635.00;4950478;28;20289;-67
2023/05/03 01:06:00;;;;;;;7.70;2.30;;;;;;;-145.18;100.00;46636.94;4950689;28;20031;-67
2023/05/03 01:08:33;;;;;;;7.00;2.33;;;;;;;-145.18;100.00;46627.19;4950538;28;20019;-67
2023/05/03 01:11:13;;;;;;;5.50;2.40;;;;;;;-145.18;100.00;46625.22;4948617;29;20368;-67
2023/05/03 01:13:57;;;;;;;4.30;2.40;;;;;;;-145.18;100.00;46621.31;4948396;29;20273;-67
2023/05/03 01:16:25;;;;;;;5.60;2.73;;;;;;;-145.18;100.00;46625.22;4950021;28;20389;-67
2023/05/03 01:18:54;;;;;;;4.07;2.50;;;;;;;-145.18;100.00;46656.50;4949577;29;20335;-68
2023/05/03 01:21:21;;;;;;;8.27;2.80;;;;;;;-145.18;100.00;46621.31;4947360;29;21089;-67
2023/05/03 01:23:56;;;;;;;5.63;2.30;;;;;;;-145.18;100.00;46656.50;4950380;28;20269;-67
2023/05/03 01:26:24;;;;;;;6.03;2.50;;;;;;;-145.18;100.00;46656.50;4950243;28;20357;-67
2023/05/03 01:28:50;;;;;;;3.37;2.33;;;;;;;-145.18;100.00;46640.88;4950204;28;20276;-67
2023/05/03 01:31:24;;;;;;;6.00;2.33;;;;;;;-145.18;100.00;46640.88;4950447;28;20762;-67
2023/05/03 01:34:17;;;;;;;7.67;2.77;;;;;;;-145.18;100.00;46635.00;4950115;28;20813;-67
2023/05/03 01:36:44;;;;;;;7.30;2.70;;;;;;;-145.18;100.00;46650.63;4949377;29;20336;-67
2023/05/03 01:39:16;;;;;;;4.50;2.40;;;;;;;-145.18;100.00;46633.06;4950754;28;20343;-67
2023/05/03 01:41:42;;;;;;;12.73;3.30;;;;;;;-145.18;100.00;46635.00;4950028;28;20269;-67
2023/05/03 01:44:09;;;;;;;6.17;2.70;;;;;;;-145.18;100.00;46635.00;4950116;28;20340;-67
2023/05/03 01:46:41;;;;;;;6.87;2.50;;;;;;;-145.18;100.00;46640.88;4949894;28;20043;-67
2023/05/03 01:49:07;;;;;;;10.33;2.73;;;;;;;-145.18;100.00;46638.91;4950328;28;20300;-67
2023/05/03 01:51:32;;;;;;;7.57;2.83;;;;;;;-145.18;100.00;46636.94;4950199;28;20841;-67
2023/05/03 01:53:58;;;;;;;7.87;3.03;;;;;;;-145.18;100.00;46631.09;4950111;29;20109;-67
2023/05/03 01:56:23;;;;;;;7.67;2.87;;;;;;;-145.18;100.00;46631.09;4949958;29;20035;-67
2023/05/03 01:58:48;;;;;;;7.50;2.63;;;;;;;-145.18;100.00;46621.31;4949514;28;20043;-67
2023/05/03 02:03:48;;;;;;;6.90;3.10;;;;;;;-145.18;100.00;46615.47;4972590;23;20039;-68
2023/05/03 02:06:13;;;;;;;6.90;2.73;;;;;;;-145.18;100.00;46623.28;4963588;28;20429;-68
2023/05/03 02:08:39;;;;;;;5.30;2.63;;;;;;;-145.18;100.00;46627.19;4955417;28;20114;-69
2023/05/03 02:11:05;;;;;;;8.77;2.97;;;;;;;-145.18;100.00;46629.13;4973660;28;20526;-68
2023/05/03 02:13:30;;;;;;;5.63;2.60;;;;;;;-145.18;100.00;46629.13;4974119;28;20383;-67
2023/05/03 02:15:56;;;;;;;8.83;2.93;;;;;;;-145.18;100.00;46627.19;4973533;28;20038;-67
2023/05/03 02:18:21;;;;;;;5.27;2.47;;;;;;;-145.18;100.00;46625.22;4973712;28;20038;-68
2023/05/03 02:20:46;;;;;;;9.90;3.07;;;;;;;-145.18;100.00;46621.31;4955378;28;20468;-68
2023/05/03 02:23:12;;;;;;;6.00;2.80;;;;;;;-145.18;100.00;46623.28;4954309;29;20071;-68
2023/05/03 02:25:38;;;;;;;6.33;3.23;;;;;;;-145.18;100.00;46619.38;4954490;28;20579;-67
2023/05/03 02:28:04;;;;;;;7.60;2.97;;;;;;;-145.18;100.00;46625.22;4954068;28;20024;-67
2023/05/03 02:30:29;;;;;;;3.63;2.50;;;;;;;-145.18;100.00;46615.47;4969833;28;20283;-68
2023/05/03 02:32:55;;;;;;;4.93;2.87;;;;;;;-145.18;100.00;46611.56;4973280;28;20125;-67
2023/05/03 02:35:20;;;;;;;6.97;3.03;;;;;;;-145.18;100.00;46617.41;4973492;28;20459;-70
2023/05/03 02:37:45;;;;;;;4.40;2.17;;;;;;;-145.18;100.00;46613.50;4955943;28;20043;-67
2023/05/03 02:40:11;;;;;;;9.17;2.67;;;;;;;-145.18;100.00;46619.38;4960221;28;20043;-68
2023/05/03 02:42:36;;;;;;;8.83;2.60;;;;;;;-145.18;100.00;46619.38;4954004;29;20112;-68
2023/05/03 02:45:02;;;;;;;6.70;3.13;;;;;;;-145.18;100.00;46615.47;4953991;28;20039;-67
2023/05/03 02:47:27;;;;;;;8.43;3.07;;;;;;;-145.18;100.00;46617.41;4954146;28;20043;-68
2023/05/03 02:49:53;;;;;;;5.07;3.07;;;;;;;-145.18;100.00;46621.31;4963687;28;20035;-68
2023/05/03 02:52:18;;;;;;;3.87;2.90;;;;;;;-145.18;100.00;46621.31;4973196;28;20038;-68
2023/05/03 02:54:45;;;;;;;6.53;3.27;;;;;;;-145.18;100.00;46621.31;4973167;28;20392;-68
2023/05/03 02:57:11;;;;;;;5.53;3.17;;;;;;;-145.18;100.00;46621.31;4957678;28;20063;-68
2023/05/03 02:59:37;;;;;;;8.33;2.83;;;;;;;-145.18;100.00;46619.38;4957976;28;20277;-68
2023/05/03 03:02:02;;;;;;;6.57;3.47;;;;;;;-145.18;100.00;46611.56;4946069;28;20600;-67
2023/05/03 03:04:28;;;;;;;9.37;3.17;;;;;;;-145.18;100.00;46617.41;4934545;29;20032;-68
2023/05/03 03:06:53;;;;;;;6.57;2.50;;;;;;;-145.18;100.00;46621.31;4934135;29;20444;-68
2023/05/03 03:09:19;;;;;;;5.73;2.73;;;;;;;-145.18;100.00;46617.41;4941130;29;20110;-68
2023/05/03 03:11:44;;;;;;;5.80;3.10;;;;;;;-145.18;100.00;46619.38;4953113;28;20054;-68
2023/05/03 03:14:10;;;;;;;10.00;3.13;;;;;;;-145.18;100.00;46613.50;4953493;29;20122;-68
2023/05/03 03:16:35;;;;;;;5.90;2.83;;;;;;;-145.18;100.00;46619.38;4953389;29;20051;-68
2023/05/03 03:19:01;;;;;;;7.17;3.17;;;;;;;-145.18;100.00;46617.41;4938584;29;20031;-68
2023/05/03 03:21:27;;;;;;;9.43;2.70;;;;;;;-145.18;100.00;46619.38;4953189;29;20047;-68
2023/05/03 03:23:53;;;;;;;8.60;2.97;;;;;;;-145.18;100.00;46621.31;4953004;29;20191;-68
2023/05/03 03:26:18;;;;;;;6.03;2.80;;;;;;;-145.18;100.00;46617.41;4953285;29;20274;-68
2023/05/03 03:28:44;;;;;;;6.13;2.63;;;;;;;-145.18;100.00;46619.38;4952512;29;20039;-68
2023/05/03 03:31:09;;;;;;;6.87;2.70;;;;;;;-145.18;100.00;46623.28;4936064;29;20453;-68
2023/05/03 03:33:35;;;;;;;6.17;3.20;;;;;;;-145.18;100.00;46621.31;4952804;29;20110;-68
2023/05/03 03:36:00;;;;;;;5.53;2.90;;;;;;;-145.18;100.00;46623.28;4952715;29;20488;-68
2023/05/03 03:38:26;;;;;;;6.30;2.80;;;;;;;-145.18;100.00;46631.09;4937404;29;20079;-68
2023/05/03 03:40:53;;;;;;;7.50;2.57;;;;;;;-145.18;100.00;46631.09;4951312;29;20027;-68
2023/05/03 03:43:18;;;;;;;7.07;3.00;;;;;;;-145.18;100.00;46635.00;4952878;29;20041;-68
2023/05/03 03:45:44;;;;;;;5.57;2.87;;;;;;;-145.18;100.00;46636.94;4952819;29;20348;-68
2023/05/03 03:48:09;;;;;;;4.70;2.77;;;;;;;-145.18;100.00;46638.91;4952731;29;20036;-68
2023/05/03 03:50:35;;;;;;;8.73;3.17;;;;;;;-145.18;100.00;46636.94;4932339;29;20456;-67
2023/05/03 03:53:01;;;;;;;5.47;2.83;;;;;;;-145.18;100.00;46640.88;4933328;29;20032;-68
2023/05/03 03:55:26;;;;;;;6.20;3.00;;;;;;;-145.18;100.00;46636.94;4934003;29;20290;-68
2023/05/03 03:57:52;;;;;;;7.40;2.83;;;;;;;-145.18;100.00;46631.09;4933402;29;20145;-68
2023/05/03 04:00:17;;;;;;;6.97;3.00;;;;;;;-145.18;100.00;46633.06;4945730;29;20034;-68
2023/05/03 04:02:43;;;;;;;5.83;2.97;;;;;;;-145.18;100.00;46636.94;4952123;28;20051;-68
2023/05/03 04:05:08;;;;;;;5.97;2.97;;;;;;;-145.18;100.00;46633.06;4952128;29;20039;-68
2023/05/03 04:07:34;;;;;;;9.03;3.63;;;;;;;-145.18;100.00;46627.19;4951646;29;20448;-68
2023/05/03 04:09:59;;;;;;;5.87;2.73;;;;;;;-145.18;100.00;46633.06;4952227;29;20051;-68
2023/05/03 04:12:24;;;;;;;6.93;3.13;;;;;;;-145.18;100.00;46638.91;4952089;29;20508;-68
2023/05/03 04:14:50;;;;;;;6.60;3.30;;;;;;;-145.18;100.00;46636.94;4952298;29;20526;-69
2023/05/03 04:17:15;;;;;;;5.17;3.03;;;;;;;-145.18;100.00;46635.00;4952313;29;20040;-69
2023/05/03 04:19:40;;;;;;;5.93;3.20;;;;;;;-145.18;100.00;46652.59;4951603;29;20488;-68
2023/05/03 04:22:06;;;;;;;5.27;2.80;;;;;;;-145.18;100.00;46650.63;4951237;29;20102;-68
2023/05/03 04:24:31;;;;;;;5.23;2.80;;;;;;;-145.18;100.00;46650.63;4951215;28;20105;-69
2023/05/03 04:26:57;;;;;;;6.27;3.20;;;;;;;-145.18;100.00;46660.41;4951177;29;20070;-68
2023/05/03 04:29:23;;;;;;;7.03;3.93;;;;;;;-145.18;100.00;46660.41;4947261;29;20051;-68
2023/05/03 04:31:49;;;;;;;7.53;2.93;;;;;;;-145.18;100.00;46654.53;4933183;29;20326;-68
2023/05/03 04:34:14;;;;;;;4.43;3.10;;;;;;;-145.18;100.00;46652.59;4932708;29;20337;-68
2023/05/03 04:36:47;;;;;;;6.93;3.03;;;;;;;-145.18;100.00;46640.88;4932570;29;20032;-68
2023/05/03 04:39:14;;;;;;;3.97;2.97;;;;;;;-145.18;100.00;46654.53;4935372;29;20120;-68
2023/05/03 04:41:40;;;;;;;6.17;2.60;;;;;;;-145.18;100.00;46642.81;4952155;29;20288;-68
2023/05/03 04:44:06;;;;;;;7.93;2.70;;;;;;;-145.18;100.00;46635.00;4951967;29;20281;-68
2023/05/03 04:46:31;;;;;;;7.93;3.50;;;;;;;-145.18;100.00;46631.09;4952274;29;20269;-68
2023/05/03 04:48:56;;;;;;;6.30;3.10;;;;;;;-145.18;100.00;46629.13;4950769;29;20468;-68
2023/05/03 04:51:22;;;;;;;8.40;3.23;;;;;;;-145.18;100.00;46617.41;4932636;29;20050;-70
2023/05/03 04:53:48;;;;;;;13.10;3.23;;;;;;;-145.18;100.00;46619.38;4942203;29;20077;-70
2023/05/03 04:56:14;;;;;;;7.57;2.90;;;;;;;-145.18;100.00;46574.44;4948553;29;20043;-68
2023/05/03 04:58:39;;;;;;;10.70;2.97;;;;;;;-145.18;100.00;46570.53;4948865;29;20099;-70
2023/05/03 05:01:06;;;;;;;7.77;3.00;;;;;;;-145.18;100.00;46572.50;4948624;29;20031;-71
2023/05/03 05:03:31;;;;;;;5.03;3.07;;;;;;;-145.18;100.00;46568.59;4948086;29;20106;-70
2023/05/03 05:05:57;;;;;;;8.30;3.20;;;;;;;-145.18;100.00;46568.59;4950800;28;20285;-71
2023/05/03 05:08:22;;;;;;;4.37;2.77;;;;;;;-145.18;100.00;46564.69;4957626;28;20031;-70
2023/05/03 05:10:48;;;;;;;12.53;3.00;;;;;;;-145.18;100.00;46574.44;4957016;28;20069;-70
2023/05/03 05:13:13;;;;;;;3.90;2.60;;;;;;;-145.18;100.00;46572.50;4960331;28;20238;-70
2023/05/03 05:15:39;;;;;;;10.00;3.00;;;;;;;-145.18;100.00;46574.44;4958308;28;20050;-71
2023/05/03 05:18:04;;;;;;;8.47;3.50;;;;;;;-145.18;100.00;46572.50;4958379;28;20039;-70
2023/05/03 05:20:30;;;;;;;8.07;3.07;;;;;;;-145.18;100.00;46576.41;4958548;28;20093;-70
2023/05/03 05:22:55;;;;;;;11.07;3.03;;;;;;;-145.18;100.00;46578.34;4960064;28;20097;-70
2023/05/03 05:25:20;;;;;;;9.93;3.20;;;;;;;-145.18;100.00;46580.31;4957381;28;20054;-68
2023/05/03 05:27:46;;;;;;;5.60;3.00;;;;;;;-145.18;100.00;46578.34;4959398;28;20031;-70
2023/05/03 05:30:11;;;;;;;7.43;3.00;;;;;;;-145.18;100.00;46586.16;4958034;28;20090;-70
2023/05/03 05:32:37;;;;;;;6.63;3.17;;;;;;;-145.18;100.00;46582.25;4959848;28;20031;-70
2023/05/03 05:35:02;;;;;;;12.77;2.90;;;;;;;-145.18;100.00;46586.16;4958968;28;20038;-70
2023/05/03 05:37:28;;;;;;;9.70;3.00;;;;;;;-145.18;100.00;46595.94;4963453;28;20068;-70
2023/05/03 05:39:54;;;;;;;4.97;2.90;;;;;;;-145.18;100.00;46588.13;4961640;28;20515;-70
2023/05/03 05:42:19;;;;;;;6.10;2.80;;;;;;;-145.18;100.00;46613.50;4963016;28;20432;-70
2023/05/03 05:44:45;;;;;;;6.10;2.80;;;;;;;-145.18;100.00;46595.94;4968021;28;20287;-69
2023/05/03 05:47:11;;;;;;;10.03;3.07;;;;;;;-145.18;100.00;46599.84;4964289;28;20039;-70
2023/05/03 05:49:36;;;;;;;6.77;2.83;;;;;;;-145.18;100.00;46603.75;4963291;28;20487;-70
2023/05/03 05:52:02;;;;;;;5.97;2.77;;;;;;;-145.18;100.00;46619.38;4962539;28;20039;-70
2023/05/03 05:54:27;;;;;;;6.57;2.90;;;;;;;-145.18;100.00;46607.66;4961776;28;20487;-70
2023/05/03 05:56:53;;;;;;;7.17;3.30;;;;;;;-145.18;100.00;46611.56;4963134;28;20059;-70
2023/05/03 05:59:18;;;;;;;4.53;2.47;;;;;;;-145.18;100.00;46613.50;4961263;28;20450;-71
2023/05/03 06:01:45;;;;;;;11.47;2.87;;;;;;;-145.18;100.00;46623.28;4962103;28;20035;-70
2023/05/03 06:04:14;;;;;;;8.20;2.80;;;;;;;-145.18;100.00;46623.28;4962965;28;20523;-70
2023/05/03 06:06:39;;;;;;;11.00;2.97;;;;;;;-145.18;100.00;46629.13;4959649;28;20277;-70
2023/05/03 06:09:05;;;;;;;4.17;2.30;;;;;;;-145.18;100.00;46636.94;4961537;28;20327;-70
2023/05/03 06:11:31;;;;;;;7.17;2.87;;;;;;;-145.18;100.00;46638.91;4963144;28;20039;-70
2023/05/03 06:13:56;;;;;;;5.90;2.50;;;;;;;-145.18;100.00;46648.69;4958020;28;20039;-70
2023/05/03 06:16:23;;;;;;;5.43;2.30;;;;;;;-145.18;100.00;46646.72;4963699;28;20769;-70
2023/05/03 06:18:49;;;;;;;4.03;2.50;;;;;;;-145.18;100.00;46664.31;4972092;28;20101;-70
2023/05/03 06:21:14;;;;;;;8.33;2.80;;;;;;;-145.18;100.00;46633.06;4958165;28;21000;-70
2023/05/03 06:23:40;;;;;;;8.03;2.93;;;;;;;-145.18;100.00;46640.88;4948830;28;20035;-69
2023/05/03 06:26:06;;;;;;;7.83;2.50;;;;;;;-145.18;100.00;46635.00;4956170;28;20047;-70
2023/05/03 06:28:31;;;;;;;5.77;2.63;;;;;;;-145.18;100.00;46652.59;4950035;29;20484;-69
2023/05/03 06:30:56;;;;;;;4.03;2.50;;;;;;;-145.18;100.00;46636.94;4945066;29;20114;-70
2023/05/03 06:33:22;;;;;;;6.80;2.40;;;;;;;-145.18;100.00;46644.78;4934069;29;20095;-70
2023/05/03 06:35:48;;;;;;;6.47;2.67;;;;;;;-145.18;100.00;46658.44;4943592;28;20510;-70
2023/05/03 06:38:13;;;;;;;5.87;2.70;;;;;;;-145.18;100.00;46656.50;4936145;29;20035;-70
2023/05/03 06:40:40;;;;;;;6.20;2.50;;;;;;;-145.18;100.00;46652.59;4953659;29;20035;-70
2023/05/03 06:43:06;;;;;;;6.17;2.90;;;;;;;-145.18;100.00;46660.41;4936839;29;20070;-70
2023/05/03 06:45:32;;;;;;;5.60;2.50;;;;;;;-145.18;100.00;46640.88;4953844;29;20340;-70
2023/05/03 06:47:57;;;;;;;5.73;3.10;;;;;;;-145.18;100.00;46648.69;4952542;28;20281;-70
2023/05/03 06:50:23;;;;;;;4.47;2.67;;;;;;;-145.18;100.00;46644.78;4953543;29;20102;-70
2023/05/03 06:52:49;;;;;;;8.70;3.10;;;;;;;-145.18;100.00;46644.78;4953217;29;20035;-70
2023/05/03 06:55:15;;;;;;;6.50;2.80;;;;;;;-145.18;100.00;46670.16;4953474;29;20035;-70
2023/05/03 06:57:41;;;;;;;10.80;3.40;;;;;;;-145.18;100.00;46670.16;4952962;29;20269;-70
2023/05/03 07:00:08;;;;;;;8.00;3.37;;;;;;;-145.18;100.00;46668.22;4953193;29;20677;-70
2023/05/03 07:02:33;;;;;;;7.50;3.40;;;;;;;-145.18;100.00;46679.94;4924168;29;20059;-69
2023/05/03 07:04:59;;;;;;;10.23;3.43;;;;;;;-145.18;100.00;46691.66;4950757;29;20273;-70
2023/05/03 07:07:24;;;;;;;7.00;2.83;;;;;;;-145.18;100.00;46687.75;4952416;29;20496;-70
2023/05/03 07:09:49;;;;;;;9.67;3.17;;;;;;;-145.18;100.00;46719.00;4942014;28;20511;-70
2023/05/03 07:12:15;;;;;;;7.53;2.80;;;;;;;-145.18;100.00;46734.63;4952973;29;20090;-69
2023/05/03 07:14:41;;;;;;;8.93;3.10;;;;;;;-145.18;100.00;46748.28;4952495;29;20035;-69
2023/05/03 07:17:07;;;;;;;11.60;3.07;;;;;;;-145.18;100.00;46761.97;4952568;29;20043;-69
2023/05/03 07:19:32;;;;;;;7.07;2.83;;;;;;;-145.18;100.00;46746.34;4935653;29;20035;-69
2023/05/03 07:21:58;;;;;;;6.63;2.77;;;;;;;-145.18;100.00;46750.25;4952627;29;20304;-69
2023/05/03 07:24:24;;;;;;;4.10;2.37;;;;;;;-145.18;100.00;46773.69;4952949;29;20074;-69
2023/05/03 07:26:50;;;;;;;2.93;2.20;;;;;;;-145.18;100.00;46808.84;4952225;29;20067;-69
2023/05/03 07:29:15;;;;;;;3.20;2.00;;;;;;;-145.18;100.00;46754.16;4952476;29;20281;-69
2023/05/03 07:31:43;;;;;;;6.80;2.17;;;;;;;-145.18;100.00;46847.91;4952127;29;20039;-69
2023/05/03 07:34:08;;;;;;;3.10;1.90;;;;;;;-145.18;100.00;47328.50;4952519;29;20028;-69
2023/05/03 07:36:33;;;;;;;4.03;1.57;;;;;;;-145.18;100.00;47367.56;4951863;29;20300;-69
2023/05/03 07:38:59;;;;;;;2.93;1.43;;;;;;;-145.18;100.00;47488.69;4933946;29;20051;-69
2023/05/03 07:41:25;;;;;;;5.93;1.87;;;;;;;-145.18;100.00;47447.66;4951722;29;20035;-69
2023/05/03 07:43:50;;;;;;;4.07;1.50;;;;;;;-145.18;100.00;47422.28;4951501;29;20396;-69
2023/05/03 07:46:15;;;;;;;5.53;1.20;;;;;;;-145.18;100.00;47412.50;4951548;29;20039;-69
2023/05/03 07:48:41;;;;;;;3.50;1.30;;;;;;;-145.18;100.00;47406.63;4950963;29;20035;-69
2023/05/03 07:51:06;;;;;;;4.27;1.43;;;;;;;-145.18;100.00;47385.16;4948280;29;20476;-69
2023/05/03 07:53:34;;;;;;;3.57;1.30;;;;;;;-145.18;100.00;47398.81;4945647;29;20069;-69
2023/05/03 07:55:59;;;;;;;4.70;1.50;;;;;;;-145.18;100.00;47391.00;4934453;29;20534;-69
2023/05/03 07:58:25;;;;;;;3.30;1.20;;;;;;;-145.18;100.00;47398.81;4951316;28;20036;-69
2023/05/03 08:00:51;;;;;;;3.07;1.67;;;;;;;-145.18;100.00;47414.47;4951825;29;20066;-69
2023/05/03 08:03:16;;;;;;;2.07;1.37;;;;;;;-145.18;100.00;47398.81;4951763;29;20059;-69
2023/05/03 08:05:42;;;;;;;5.17;1.67;;;;;;;-145.18;100.00;47371.47;4951949;29;20412;-69
2023/05/03 08:08:08;;;;;;;3.93;1.40;;;;;;;-145.18;100.00;47375.38;4951789;29;20039;-69
2023/05/03 08:10:36;;;;;;;2.67;1.30;;;;;;;-145.18;100.00;47363.66;4934668;29;20089;-69
2023/05/03 08:13:03;;;;;;;4.70;1.60;;;;;;;-145.18;100.00;47373.44;4951146;29;20039;-69
2023/05/03 08:15:29;;;;;;;3.57;1.30;;;;;;;-145.18;100.00;47373.44;4952014;29;20109;-69
2023/05/03 08:17:54;;;;;;;4.47;1.20;;;;;;;-145.18;100.00;47357.78;4951275;29;20127;-68
2023/05/03 08:20:20;;;;;;;7.67;1.73;;;;;;;-145.18;100.00;47369.53;4951839;29;20058;-68
2023/05/03 08:22:46;;;;;;;2.83;1.50;;;;;;;-145.18;100.00;47371.47;4934172;29;20067;-68
2023/05/03 08:25:11;;;;;;;5.03;2.10;;;;;;;-145.18;100.00;47394.91;4951738;29;20058;-68
2023/05/03 08:27:37;;;;;;;4.73;1.60;;;;;;;-145.18;100.00;47391.00;4951448;29;20785;-68
2023/05/03 08:30:03;;;;;;;4.03;2.20;;;;;;;-145.18;100.00;47391.00;4951347;29;20515;-68
2023/05/03 08:32:29;;;;;;;8.30;1.90;;;;;;;-145.18;100.00;47392.97;4951546;29;20130;-69
2023/05/03 08:34:55;;;;;;;7.30;1.90;;;;;;;-145.18;100.00;47385.16;4958679;28;20047;-68
2023/05/03 08:37:21;;;;;;;5.87;2.30;;;;;;;-145.18;100.00;47394.91;4952308;28;20047;-69
2023/05/03 08:39:47;;;;;;;8.60;2.10;;;;;;;-145.18;100.00;47398.81;4954488;28;20269;-69
2023/05/03 08:42:13;;;;;;;5.23;2.20;;;;;;;-145.18;100.00;47379.28;4954154;28;20292;-68
2023/05/03 08:44:48;;;;;;;9.13;2.57;;;;;;;-145.18;100.00;47375.38;4950803;29;20064;-68
2023/05/03 08:47:15;;;;;;;5.45;2.20;;;;;;;-145.18;100.00;47373.44;4944606;29;20473;-68
2023/05/03 08:49:43;;;;;;;5.97;1.93;;;;;;;-145.18;100.00;47369.53;4950974;29;20106;-68
2023/05/03 08:52:10;;;;;;;5.80;2.00;;;;;;;-145.18;100.00;47373.44;4951498;29;20773;-69
2023/05/03 08:54:36;;;;;;;4.33;2.27;;;;;;;-145.18;100.00;47371.47;4951265;29;20031;-68
2023/05/03 08:57:02;;;;;;;5.60;2.50;;;;;;;-145.18;100.00;47365.63;4950954;28;20923;-69
2023/05/03 08:59:28;;;;;;;6.63;2.77;;;;;;;-145.18;100.00;47363.66;4961202;28;20031;-68
2023/05/03 09:01:54;;;;;;;8.30;2.70;;;;;;;-145.18;100.00;47363.66;4964649;28;20507;-69
2023/05/03 09:04:20;;;;;;;5.13;2.70;;;;;;;-145.18;100.00;47367.56;4950793;29;20095;-69
2023/05/03 09:06:45;;;;;;;6.07;2.37;;;;;;;-145.18;100.00;47365.63;4951229;29;20027;-69
2023/05/03 09:09:10;;;;;;;7.30;3.10;;;;;;;-145.18;100.00;47355.84;4944226;28;20043;-68
2023/05/03 09:11:37;;;;;;;5.27;2.60;;;;;;;-145.18;100.00;47359.75;4948218;29;20131;-69
2023/05/03 09:14:16;;;;;;;4.80;2.27;;;;;;;-145.18;100.00;47355.84;4949682;29;20027;-69
2023/05/03 09:16:43;;;;;;;5.93;2.03;;;;;;;-145.18;100.00;47326.53;4959565;28;20039;-68
2023/05/03 09:19:11;;;;;;;4.47;2.50;;;;;;;-145.18;100.00;47328.50;4955037;29;20073;-70
2023/05/03 09:21:40;;;;;;;4.70;2.50;;;;;;;-145.18;100.00;47336.31;4955226;29;20078;-69
2023/05/03 09:24:17;;;;;;;6.07;2.57;;;;;;;-145.18;100.00;47332.41;4954389;29;20046;-70
2023/05/03 09:26:44;;;;;;;6.67;3.13;;;;;;;-145.18;100.00;47344.13;4954756;29;20066;-70
2023/05/03 09:29:10;;;;;;;11.50;2.80;;;;;;;-145.18;100.00;47314.81;4955177;29;20067;-70
2023/05/03 09:31:36;;;;;;;6.27;3.13;;;;;;;-145.18;100.00;47318.72;4953882;29;20071;-70
2023/05/03 09:34:20;;;;;;;8.23;3.63;;;;;;;-145.18;100.00;47312.88;4954761;29;20039;-69
2023/05/03 09:36:46;;;;;;;6.37;3.00;;;;;;;-145.18;100.00;47303.09;4954858;29;20058;-69
2023/05/03 09:39:16;;;;;;;5.30;2.50;;;;;;;-145.18;100.00;47342.16;4955002;29;20031;-69
2023/05/03 09:41:41;;;;;;;7.57;2.87;;;;;;;-145.18;100.00;47320.69;4954703;29;20075;-70
2023/05/03 09:44:07;;;;;;;7.77;2.87;;;;;;;-145.18;100.00;47324.59;4954914;29;20035;-70
2023/05/03 09:46:32;;;;;;;5.73;2.80;;;;;;;-145.18;100.00;47328.50;4954923;29;20113;-70
2023/05/03 09:48:58;;;;;;;9.47;2.97;;;;;;;-145.18;100.00;47293.31;4936895;29;20515;-70
2023/05/03 09:51:23;;;;;;;7.83;3.20;;;;;;;-145.18;100.00;47305.06;4954779;29;20031;-69
2023/05/03 09:53:49;;;;;;;6.37;2.67;;;;;;;-145.18;100.00;47314.81;4954226;29;20063;-69
2023/05/03 09:56:15;;;;;;;6.07;2.90;;;;;;;-145.18;100.00;47326.53;4954689;29;20045;-69
2023/05/03 09:58:42;;;;;;;5.47;3.37;;;;;;;-145.18;100.00;47316.78;4954159;29;20039;-69
2023/05/03 10:01:09;;;;;;;9.10;3.10;;;;;;;-145.18;100.00;47316.78;4954960;29;20460;-69
2023/05/03 10:03:46;;;;;;;4.17;2.73;;;;;;;-145.18;100.00;47305.06;4936563;29;20781;-70
2023/05/03 10:06:21;;;;;;;11.03;3.10;;;;;;;-145.18;100.00;47281.59;4954735;29;20400;-69
2023/05/03 10:08:59;;;;;;;5.57;2.88;;;;;;;-145.18;100.00;47303.09;4953958;29;20029;-69
2023/05/03 10:11:26;;;;;;;5.97;2.87;;;;;;;-145.18;100.00;47336.31;4954535;29;20064;-69
2023/05/03 10:13:53;;;;;;;7.57;3.20;;;;;;;-145.18;100.00;47291.38;4953741;29;20045;-69
2023/05/03 10:16:47;;;;;;;4.13;2.43;;;;;;;-145.18;100.00;47285.50;4954072;29;20508;-69
2023/05/03 10:19:18;;;;;;;5.13;2.67;;;;;;;-145.18;100.00;47275.75;4952958;29;20069;-70
2023/05/03 10:22:09;;;;;;;7.13;3.00;;;;;;;-145.18;100.00;47271.84;4953171;28;20118;-69
2023/05/03 10:24:36;;;;;;;9.90;2.90;;;;;;;-145.18;100.00;47277.69;4953798;29;20805;-70
2023/05/03 10:27:02;;;;;;;7.13;3.33;;;;;;;-145.18;100.00;47285.50;4953488;29;20114;-69
2023/05/03 10:29:33;;;;;;;6.97;3.20;;;;;;;-145.18;100.00;47277.69;4954199;29;20028;-69
2023/05/03 10:32:02;;;;;;;3.37;2.63;;;;;;;-145.18;100.00;47254.25;4953871;29;20031;-69
2023/05/03 10:34:33;;;;;;;7.17;3.40;;;;;;;-145.18;100.00;47271.84;4953761;29;20032;-69
2023/05/03 10:37:07;;;;;;;6.60;3.20;;;;;;;-145.18;100.00;47269.88;4953591;29;20043;-69
2023/05/03 10:39:32;;;;;;;8.43;3.30;;;;;;;-145.18;100.00;47254.25;4953589;29;20047;-69
2023/05/03 10:42:02;;;;;;;7.67;3.40;;;;;;;-145.18;100.00;47262.06;4936294;29;20415;-70
2023/05/03 10:44:36;;;;;;;7.00;3.23;;;;;;;-145.18;100.00;47273.78;4936453;29;20034;-69
2023/05/03 10:47:21;;;;;;;4.17;2.73;;;;;;;-145.18;100.00;47265.97;4953628;29;20090;-69
2023/05/03 10:49:46;;;;;;;7.07;3.43;;;;;;;-145.18;100.00;47265.97;4953375;29;20031;-69
2023/05/03 10:52:36;;;;;;;6.50;3.60;;;;;;;-145.18;100.00;47252.31;4953686;29;20489;-70
2023/05/03 10:55:09;;;;;;;7.83;3.40;;;;;;;-145.18;100.00;47223.00;4953323;29;20059;-69
2023/05/03 10:57:36;;;;;;;4.33;2.90;;;;;;;-145.18;100.00;47240.56;4953549;29;20042;-69
2023/05/03 11:00:11;;;;;;;7.20;3.03;;;;;;;-145.18;100.00;47242.53;4953400;29;20035;-69
2023/05/03 11:02:46;;;;;;;4.73;3.93;;;;;;;-145.18;100.00;47219.09;4953054;29;20096;-69
2023/05/03 11:05:13;;;;;;;9.50;4.00;;;;;;;-145.18;100.00;47199.56;4953291;29;20020;-69
2023/05/03 11:07:39;;;;;;;7.37;3.27;;;;;;;-145.18;100.00;47234.72;4953167;28;20043;-69
2023/05/03 11:10:18;;;;;;;6.50;3.20;;;;;;;-145.18;100.00;47230.81;4953172;29;20042;-69